Sister Bay, Wisconsin
Current Conditions -  °F | °C
As of 10:15 PM on Saturday 25 Oct 2014 (Local Time) from KMNM Reporting Station
Clear Clear  
Wind Chill: 52°   Ceiling: Unl
Heat Index: 52°   Visibility: 10mi
Dew Point: 23°   Wind: 7mph
Humidity: 33%   Direction: 310°NW
Pressure: 29.86"   Gusts: NA
Location:  45.19°N, 87.12°W
Report Text: KMNM 260315Z AUTO 31006KT 10SM CLR 11/M05 A2986 RMK AO1
Loading
Personal Weather Stations






























Interactive Weather Map
Tropical Storm Tracking
New forecast layout! Learn more

10-Day Weather Forecast

Advertisements
Track Severe Weather on mobile